Time;durP1;ratioP1;P1;durP2;ratioP2;P2;SDS_P1;SDS_P2;PMS_P1;PMS_P2;Temp;Humidity;BMP_temperature;BMP_pressure;BME280_temperature;BME280_humidity;BME280_pressure;Samples;Min_cycle;Max_cycle;Signal;HPM_P1;HPM_P2
2021/01/11 00:00:34;;;;;;;12.70;7.38;;;0.20;99.90;;;;;;5064744;28;20298;-53
2021/01/11 00:03:02;;;;;;;13.18;7.03;;;0.20;99.90;;;;;;5075393;28;20180;-49
2021/01/11 00:05:29;;;;;;;14.45;5.93;;;0.20;99.90;;;;;;5075661;28;20184;-51
2021/01/11 00:07:56;;;;;;;10.55;6.28;;;0.20;99.90;;;;;;5075552;28;20195;-52
2021/01/11 00:10:23;;;;;;;12.80;7.65;;;0.20;99.90;;;;;;5075100;28;20294;-57
2021/01/11 00:12:50;;;;;;;15.60;10.15;;;0.20;99.90;;;;;;5075224;28;20604;-55
2021/01/11 00:15:18;;;;;;;14.68;6.97;;;0.20;99.90;;;;;;5073695;28;20188;-55
2021/01/11 00:17:46;;;;;;;9.75;4.82;;;0.20;99.90;;;;;;5075488;28;20712;-54
2021/01/11 00:20:13;;;;;;;15.20;6.32;;;0.30;99.90;;;;;;5075429;28;20204;-54
2021/01/11 00:22:43;;;;;;;10.75;5.00;;;0.20;99.90;;;;;;5075740;28;20184;-53
2021/01/11 00:25:12;;;;;;;16.30;7.90;;;0.20;99.90;;;;;;5075096;28;20179;-49
2021/01/11 00:27:41;;;;;;;7.70;5.47;;;0.20;99.90;;;;;;5075323;28;20177;-50
2021/01/11 00:30:09;;;;;;;12.88;6.65;;;0.10;99.90;;;;;;5074683;28;20211;-50
2021/01/11 00:32:37;;;;;;;10.43;6.97;;;0.10;99.90;;;;;;5075231;28;20230;-47
2021/01/11 00:35:07;;;;;;;16.92;7.70;;;0.10;99.90;;;;;;5075047;28;20176;-49
2021/01/11 00:37:35;;;;;;;16.05;8.05;;;0.10;99.90;;;;;;5074354;28;20200;-54
2021/01/11 00:40:07;;;;;;;8.18;7.10;;;0.10;99.90;;;;;;5073773;28;20227;-53
2021/01/11 00:42:37;;;;;;;14.50;9.45;;;0.20;99.90;;;;;;5074850;28;20570;-51
2021/01/11 00:45:08;;;;;;;15.20;8.30;;;0.20;99.90;;;;;;5073038;28;20188;-53
2021/01/11 00:47:39;;;;;;;8.27;6.60;;;0.30;1.00;;;;;;5074565;28;20168;-55
2021/01/11 00:50:10;;;;;;;12.27;8.98;;;0.40;1.00;;;;;;5072895;28;20216;-55
2021/01/11 00:52:39;;;;;;;11.93;8.10;;;0.60;1.00;;;;;;5073274;28;20204;-48
2021/01/11 00:55:10;;;;;;;10.55;7.95;;;0.60;1.00;;;;;;5072879;28;20196;-52
2021/01/11 00:57:42;;;;;;;12.02;8.95;;;0.70;1.00;;;;;;5072334;28;20257;-55
2021/01/11 01:00:17;;;;;;;5.68;5.07;;;0.70;1.00;;;;;;5072420;28;20246;-53
2021/01/11 01:03:07;;;;;;;14.10;8.15;;;0.80;1.00;;;;;;5074580;28;20230;-55
2021/01/11 01:05:35;;;;;;;12.68;8.45;;;0.80;1.00;;;;;;5073912;28;20192;-54
2021/01/11 01:08:03;;;;;;;10.18;7.15;;;0.90;99.90;;;;;;5074986;28;20176;-53
2021/01/11 01:10:30;;;;;;;12.38;8.30;;;0.90;99.90;;;;;;5074413;28;20208;-53
2021/01/11 01:12:58;;;;;;;7.32;5.53;;;0.90;99.90;;;;;;5074142;28;20686;-52
2021/01/11 01:15:25;;;;;;;8.38;6.80;;;0.90;99.90;;;;;;5073339;28;20204;-51
2021/01/11 01:17:53;;;;;;;8.57;6.03;;;0.90;99.90;;;;;;5073797;28;20633;-52
2021/01/11 01:20:20;;;;;;;8.45;5.75;;;0.90;99.90;;;;;;5072393;28;20216;-51
2021/01/11 01:22:50;;;;;;;10.95;6.05;;;0.80;99.90;;;;;;5073868;28;20255;-54
2021/01/11 01:25:17;;;;;;;8.85;5.68;;;0.80;99.90;;;;;;5073647;28;20176;-52
2021/01/11 01:27:45;;;;;;;8.20;4.38;;;0.80;99.90;;;;;;5072959;28;20548;-52
2021/01/11 01:30:13;;;;;;;8.48;5.43;;;0.90;99.90;;;;;;5073042;28;20218;-52
2021/01/11 01:32:41;;;;;;;8.98;6.22;;;0.90;99.90;;;;;;5071457;28;20192;-50
2021/01/11 01:35:10;;;;;;;8.30;4.95;;;0.90;99.90;;;;;;5073677;28;20279;-49
2021/01/11 01:37:37;;;;;;;10.18;7.45;;;1.00;99.90;;;;;;5072609;28;20192;-50
2021/01/11 01:40:07;;;;;;;8.77;4.97;;;1.00;99.90;;;;;;5072545;28;20204;-47
2021/01/11 01:42:34;;;;;;;10.32;6.40;;;1.00;99.90;;;;;;5072704;28;20629;-48
2021/01/11 01:45:02;;;;;;;11.00;7.10;;;1.00;99.90;;;;;;5073053;28;20187;-54
2021/01/11 01:47:30;;;;;;;16.02;7.47;;;1.00;99.90;;;;;;5072286;28;20172;-54
2021/01/11 01:49:57;;;;;;;10.45;7.75;;;1.00;99.90;;;;;;5072590;28;20699;-54
2021/01/11 01:52:24;;;;;;;16.80;7.82;;;1.00;99.90;;;;;;5071957;28;20679;-49
2021/01/11 01:54:52;;;;;;;7.85;6.25;;;1.10;99.90;;;;;;5072838;28;20175;-50
2021/01/11 01:57:20;;;;;;;14.80;7.22;;;1.10;99.90;;;;;;5070907;28;20311;-48
2021/01/11 01:59:49;;;;;;;12.77;5.90;;;1.10;99.90;;;;;;5072238;28;20216;-53
2021/01/11 02:02:18;;;;;;;11.35;6.32;;;1.10;99.90;;;;;;5072480;28;20612;-52
2021/01/11 02:04:46;;;;;;;15.38;7.75;;;1.10;99.90;;;;;;5072802;28;20186;-53
2021/01/11 02:07:24;;;;;;;8.05;6.10;;;1.20;99.90;;;;;;5072899;28;20267;-55
2021/01/11 02:10:02;;;;;;;13.93;8.75;;;1.20;99.90;;;;;;5072695;28;20211;-54
2021/01/11 02:12:49;;;;;;;17.45;6.50;;;1.20;99.90;;;;;;5071631;28;20195;-54
2021/01/11 02:15:22;;;;;;;8.40;6.70;;;1.20;99.90;;;;;;5071339;28;20203;-54
2021/01/11 02:17:59;;;;;;;11.00;6.60;;;1.20;99.90;;;;;;5072730;28;20614;-52
2021/01/11 02:21:06;;;;;;;8.23;7.30;;;1.20;99.90;;;;;;5072644;28;20266;-53
2021/01/11 02:24:02;;;;;;;5.53;4.20;;;1.30;99.90;;;;;;5047190;28;20204;-55
2021/01/11 02:26:44;;;;;;;14.93;6.35;;;1.30;99.90;;;;;;5072536;28;20196;-52
2021/01/11 02:29:28;;;;;;;9.05;6.80;;;1.30;99.90;;;;;;5073283;28;20406;-50
2021/01/11 02:31:57;;;;;;;6.13;4.38;;;1.20;99.90;;;;;;5072861;28;20195;-53
2021/01/11 02:34:26;;;;;;;9.57;5.78;;;1.20;99.90;;;;;;5072952;28;20521;-49
2021/01/11 02:36:54;;;;;;;7.50;5.25;;;1.20;99.90;;;;;;5072949;28;20703;-54
2021/01/11 02:39:22;;;;;;;12.35;6.32;;;1.10;99.90;;;;;;5072903;28;20543;-50
2021/01/11 02:41:49;;;;;;;9.68;6.82;;;1.20;99.90;;;;;;5072569;28;20544;-52
2021/01/11 02:44:16;;;;;;;8.95;6.25;;;1.20;99.90;;;;;;5073044;28;20184;-51
2021/01/11 02:46:43;;;;;;;13.00;8.48;;;1.20;99.90;;;;;;5072980;28;20184;-51
2021/01/11 02:49:20;;;;;;;9.40;5.65;;;1.20;99.90;;;;;;5072502;28;20172;-53
2021/01/11 02:51:59;;;;;;;6.10;5.50;;;1.10;99.90;;;;;;5072828;28;20655;-55
2021/01/11 02:54:33;;;;;;;13.82;6.63;;;1.10;99.90;;;;;;5072204;28;20174;-55
2021/01/11 02:57:08;;;;;;;9.85;6.80;;;1.20;99.90;;;;;;5072387;28;20240;-52
2021/01/11 02:59:40;;;;;;;7.68;6.28;;;1.20;99.90;;;;;;5072356;28;20175;-54
2021/01/11 03:02:09;;;;;;;14.75;6.25;;;1.30;99.90;;;;;;5072439;28;20207;-54
2021/01/11 03:04:38;;;;;;;8.55;5.63;;;1.30;99.90;;;;;;5078604;28;20176;-50
2021/01/11 03:07:06;;;;;;;4.25;3.85;;;1.30;99.90;;;;;;5079010;28;20192;-51
2021/01/11 03:09:38;;;;;;;9.80;5.35;;;1.20;99.90;;;;;;5078953;28;20190;-56
2021/01/11 03:12:05;;;;;;;7.28;4.80;;;1.20;99.90;;;;;;5078941;28;20176;-56
2021/01/11 03:14:33;;;;;;;5.55;4.50;;;1.30;99.90;;;;;;5078934;28;20167;-52
2021/01/11 03:17:01;;;;;;;10.55;5.45;;;1.20;99.90;;;;;;5111507;22;20230;-47
2021/01/11 03:19:28;;;;;;;12.35;5.70;;;1.20;99.90;;;;;;5079165;28;20586;-48
2021/01/11 03:21:57;;;;;;;9.43;6.90;;;1.20;99.90;;;;;;5079128;28;20210;-45
2021/01/11 03:24:24;;;;;;;12.80;5.63;;;1.10;99.90;;;;;;5078948;28;20187;-45
2021/01/11 03:26:52;;;;;;;12.68;6.60;;;1.10;99.90;;;;;;5079173;28;20182;-51
2021/01/11 03:29:19;;;;;;;10.50;5.50;;;1.10;99.90;;;;;;5079035;28;20192;-48
2021/01/11 03:31:47;;;;;;;8.80;4.40;;;1.00;99.90;;;;;;5079076;28;20377;-46
2021/01/11 03:34:15;;;;;;;5.57;4.60;;;1.00;99.90;;;;;;5079260;28;20194;-47
2021/01/11 03:36:42;;;;;;;10.23;5.93;;;0.90;99.90;;;;;;5078979;28;20239;-49
2021/01/11 03:39:11;;;;;;;13.05;6.45;;;0.80;99.90;;;;;;5079060;28;20176;-45
2021/01/11 03:41:41;;;;;;;10.70;6.30;;;0.70;99.90;;;;;;5078718;28;20207;-50
2021/01/11 03:44:08;;;;;;;6.22;5.25;;;0.80;99.90;;;;;;5078623;28;20199;-45
2021/01/11 03:46:36;;;;;;;10.25;5.70;;;0.80;99.90;;;;;;5078929;28;20255;-49
2021/01/11 03:49:05;;;;;;;6.45;4.88;;;0.70;99.90;;;;;;5079531;28;20686;-46
2021/01/11 03:51:32;;;;;;;7.43;5.80;;;0.80;99.90;;;;;;5079463;28;20231;-47
2021/01/11 03:53:59;;;;;;;7.50;4.68;;;0.70;99.90;;;;;;5079256;28;20192;-49
2021/01/11 03:56:27;;;;;;;11.98;6.78;;;0.70;99.90;;;;;;5079442;28;20203;-47
2021/01/11 03:58:54;;;;;;;9.45;6.55;;;0.70;99.90;;;;;;5079275;28;20226;-49
2021/01/11 04:01:21;;;;;;;8.60;5.00;;;0.80;99.90;;;;;;5079202;28;20700;-49
2021/01/11 04:03:49;;;;;;;16.23;7.25;;;0.90;99.90;;;;;;5079350;28;20188;-46
2021/01/11 04:06:20;;;;;;;9.18;6.53;;;0.80;99.90;;;;;;5079331;28;20212;-49
2021/01/11 04:08:47;;;;;;;10.80;7.68;;;0.80;99.90;;;;;;5078824;28;20180;-51
2021/01/11 04:11:18;;;;;;;5.45;4.43;;;0.90;99.90;;;;;;5154266;22;20227;-55
2021/01/11 04:13:46;;;;;;;11.68;4.88;;;0.90;99.90;;;;;;5078324;28;20259;-55
2021/01/11 04:16:13;;;;;;;10.40;7.18;;;0.80;99.90;;;;;;5074771;28;20273;-49
2021/01/11 04:18:40;;;;;;;10.05;4.88;;;0.80;99.90;;;;;;5075261;28;20182;-51
2021/01/11 04:21:11;;;;;;;14.70;8.23;;;0.80;99.90;;;;;;5075005;28;20208;-55
2021/01/11 04:23:38;;;;;;;11.65;6.22;;;0.90;99.90;;;;;;5075320;28;20183;-49
2021/01/11 04:26:07;;;;;;;9.38;5.30;;;0.80;99.90;;;;;;5075319;28;20204;-49
2021/01/11 04:28:34;;;;;;;8.05;4.88;;;0.90;99.90;;;;;;5075131;28;20263;-50
2021/01/11 04:31:03;;;;;;;15.18;8.07;;;0.90;99.90;;;;;;5075673;28;20216;-48
2021/01/11 04:33:30;;;;;;;8.82;7.43;;;0.90;99.90;;;;;;5075092;28;20641;-48
2021/01/11 04:35:57;;;;;;;7.38;6.03;;;0.80;99.90;;;;;;5074863;28;20245;-46
2021/01/11 04:38:24;;;;;;;6.30;4.57;;;0.90;99.90;;;;;;5075043;28;20351;-45
2021/01/11 04:40:51;;;;;;;10.30;7.13;;;0.80;99.90;;;;;;5074468;28;20715;-50
2021/01/11 04:43:20;;;;;;;9.02;6.88;;;0.90;99.90;;;;;;5074499;28;20412;-48
2021/01/11 04:45:47;;;;;;;6.88;4.93;;;0.90;99.90;;;;;;5073825;28;20222;-48
2021/01/11 04:48:15;;;;;;;8.18;6.47;;;0.90;99.90;;;;;;5074120;28;20259;-50
2021/01/11 04:50:45;;;;;;;9.00;5.30;;;1.00;99.90;;;;;;5073858;28;20244;-54
2021/01/11 04:53:13;;;;;;;10.18;5.38;;;1.00;99.90;;;;;;5074062;28;20176;-50
2021/01/11 04:55:40;;;;;;;8.55;5.15;;;1.00;99.90;;;;;;5073599;28;20259;-50
2021/01/11 04:58:08;;;;;;;6.35;5.18;;;1.00;99.90;;;;;;5073738;28;20203;-48
2021/01/11 05:00:38;;;;;;;9.00;5.25;;;0.90;99.90;;;;;;5074124;28;20207;-53
2021/01/11 05:03:06;;;;;;;13.35;6.22;;;1.00;99.90;;;;;;5073994;28;20468;-53
2021/01/11 05:05:35;;;;;;;7.05;6.07;;;1.00;99.90;;;;;;5074353;28;20686;-48
2021/01/11 05:08:03;;;;;;;7.63;6.65;;;1.00;99.90;;;;;;5074390;28;20169;-48
2021/01/11 05:10:32;;;;;;;9.13;6.63;;;1.00;99.90;;;;;;5073726;28;20234;-48
2021/01/11 05:13:02;;;;;;;15.65;9.93;;;1.00;99.90;;;;;;5073500;28;20188;-48
2021/01/11 05:15:30;;;;;;;10.25;6.97;;;1.00;99.90;;;;;;5074384;28;20172;-47
2021/01/11 05:17:59;;;;;;;12.57;7.60;;;1.00;99.90;;;;;;5074324;28;20242;-48
2021/01/11 05:20:28;;;;;;;15.02;7.55;;;0.90;99.90;;;;;;5074490;28;20243;-46
2021/01/11 05:22:58;;;;;;;13.05;9.25;;;1.00;99.90;;;;;;5073794;28;20625;-49
2021/01/11 05:25:27;;;;;;;8.95;7.45;;;1.10;99.90;;;;;;5073126;28;20172;-44
2021/01/11 05:28:06;;;;;;;9.82;6.88;;;1.00;99.90;;;;;;5073014;28;20184;-45
2021/01/11 05:30:35;;;;;;;11.15;7.93;;;1.10;99.90;;;;;;5073263;28;20567;-50
2021/01/11 05:33:03;;;;;;;8.20;6.53;;;1.10;99.90;;;;;;5073008;28;20274;-48
2021/01/11 05:35:31;;;;;;;11.60;6.80;;;1.10;99.90;;;;;;5071723;28;20192;-51
2021/01/11 05:37:59;;;;;;;10.15;7.88;;;1.10;99.90;;;;;;5072848;28;20235;-49
2021/01/11 05:40:28;;;;;;;8.77;6.38;;;1.10;99.90;;;;;;5073008;28;20243;-48
2021/01/11 05:42:57;;;;;;;15.30;9.82;;;1.10;99.90;;;;;;5072581;28;20176;-45
2021/01/11 05:45:27;;;;;;;9.88;7.45;;;1.20;99.90;;;;;;5072898;28;20180;-50
2021/01/11 05:48:07;;;;;;;19.08;9.70;;;1.20;99.90;;;;;;5072715;28;20512;-45
2021/01/11 05:50:37;;;;;;;14.65;6.82;;;1.10;99.90;;;;;;5072972;28;20295;-48
2021/01/11 05:53:16;;;;;;;10.65;6.82;;;1.10;99.90;;;;;;5072944;28;20211;-50
2021/01/11 05:55:43;;;;;;;6.85;5.35;;;1.10;99.90;;;;;;5072651;28;20180;-51
2021/01/11 05:58:11;;;;;;;8.43;5.00;;;1.20;99.90;;;;;;5072997;28;20207;-50
2021/01/11 06:00:39;;;;;;;9.30;6.32;;;1.30;99.90;;;;;;5072742;28;20580;-51
2021/01/11 06:03:09;;;;;;;7.28;5.63;;;1.30;99.90;;;;;;5072650;28;20180;-50
2021/01/11 06:05:37;;;;;;;11.05;7.60;;;1.20;99.90;;;;;;5073200;28;20226;-47
2021/01/11 06:08:06;;;;;;;10.32;6.78;;;1.20;99.90;;;;;;5072216;28;20614;-47
2021/01/11 06:10:36;;;;;;;13.32;10.25;;;1.20;99.90;;;;;;5072591;28;20584;-49
2021/01/11 06:13:08;;;;;;;13.13;8.20;;;1.30;99.90;;;;;;5072929;28;20643;-48
2021/01/11 06:15:36;;;;;;;7.82;6.47;;;1.30;99.90;;;;;;5072377;28;20200;-48
2021/01/11 06:18:08;;;;;;;12.13;7.28;;;1.30;99.90;;;;;;5071916;28;20607;-50
2021/01/11 06:20:35;;;;;;;15.00;7.15;;;1.30;99.90;;;;;;5071800;28;20287;-49
2021/01/11 06:23:04;;;;;;;6.95;6.25;;;1.30;99.90;;;;;;5072052;28;20242;-50
2021/01/11 06:25:37;;;;;;;7.40;6.70;;;1.30;99.90;;;;;;5072674;28;20267;-50
2021/01/11 06:28:07;;;;;;;11.98;9.00;;;1.40;99.90;;;;;;5072626;28;20653;-45
2021/01/11 06:30:43;;;;;;;10.18;7.43;;;1.30;99.90;;;;;;5072498;28;20210;-49
2021/01/11 06:33:13;;;;;;;10.98;8.02;;;1.20;99.90;;;;;;5061173;28;20180;-50
2021/01/11 06:35:43;;;;;;;7.60;6.90;;;1.20;99.90;;;;;;5072043;28;20283;-50
2021/01/11 06:38:18;;;;;;;14.40;8.07;;;1.20;99.90;;;;;;5071243;28;20206;-50
2021/01/11 06:40:51;;;;;;;11.50;7.38;;;1.30;99.90;;;;;;5064094;28;20243;-44
2021/01/11 06:43:20;;;;;;;23.55;8.98;;;1.30;99.90;;;;;;5051978;28;20177;-46
2021/01/11 06:45:48;;;;;;;14.15;8.93;;;1.30;99.90;;;;;;5051344;28;20180;-48
2021/01/11 06:48:18;;;;;;;12.00;7.57;;;1.20;99.90;;;;;;5051916;28;20204;-51
2021/01/11 06:50:47;;;;;;;9.45;5.88;;;1.30;99.90;;;;;;5052363;28;20215;-48
2021/01/11 06:53:14;;;;;;;11.68;7.85;;;1.30;99.90;;;;;;5051535;28;20177;-48
2021/01/11 06:55:42;;;;;;;9.27;8.23;;;1.30;99.90;;;;;;5052023;28;20189;-48
2021/01/11 06:58:10;;;;;;;12.00;6.93;;;1.30;99.90;;;;;;5051519;28;20203;-48
2021/01/11 07:00:39;;;;;;;7.38;6.60;;;1.30;99.90;;;;;;5051865;28;20205;-44
2021/01/11 07:03:07;;;;;;;8.55;6.20;;;1.20;99.90;;;;;;5064683;28;20644;-53
2021/01/11 07:05:39;;;;;;;8.13;6.82;;;1.20;99.90;;;;;;5071847;28;20188;-52
2021/01/11 07:08:07;;;;;;;11.00;8.45;;;1.10;99.90;;;;;;5071823;28;20169;-49
2021/01/11 07:10:36;;;;;;;7.28;5.57;;;1.20;99.90;;;;;;5071491;28;20223;-50
2021/01/11 07:13:26;;;;;;;9.27;6.65;;;1.20;99.90;;;;;;5072089;28;20690;-46
2021/01/11 07:16:17;;;;;;;10.10;6.75;;;1.20;99.90;;;;;;5070435;28;20207;-47
2021/01/11 07:18:45;;;;;;;11.52;8.75;;;1.20;99.90;;;;;;5071956;28;20231;-47
2021/01/11 07:21:22;;;;;;;8.32;6.18;;;1.20;99.90;;;;;;5071642;28;20204;-44
2021/01/11 07:23:51;;;;;;;10.25;7.50;;;1.20;99.90;;;;;;5072472;28;20203;-48
2021/01/11 07:26:20;;;;;;;5.13;4.55;;;1.20;99.90;;;;;;5072196;28;20180;-46
2021/01/11 07:28:59;;;;;;;6.72;5.45;;;1.30;99.90;;;;;;5072645;28;20535;-45
2021/01/11 07:31:29;;;;;;;9.38;4.97;;;1.20;99.90;;;;;;5072748;28;20200;-47
2021/01/11 07:34:01;;;;;;;8.38;5.85;;;1.10;99.90;;;;;;5072015;28;20192;-51
2021/01/11 07:36:39;;;;;;;10.07;7.25;;;1.10;99.90;;;;;;5072082;28;20541;-48
2021/01/11 07:39:18;;;;;;;5.40;4.45;;;1.00;99.90;;;;;;5072542;28;20176;-50
2021/01/11 07:41:47;;;;;;;13.32;5.80;;;1.00;99.90;;;;;;5072346;28;20191;-48
2021/01/11 07:44:20;;;;;;;6.40;4.85;;;1.00;99.90;;;;;;5072436;28;20184;-46
2021/01/11 07:46:59;;;;;;;8.40;5.35;;;1.00;99.90;;;;;;5071844;28;20722;-47
2021/01/11 07:49:27;;;;;;;11.63;8.77;;;1.10;99.90;;;;;;5071979;28;20203;-47
2021/01/11 07:52:01;;;;;;;6.72;4.70;;;1.20;99.90;;;;;;5075648;28;20180;-50
2021/01/11 07:54:29;;;;;;;10.90;7.70;;;1.20;99.90;;;;;;5075383;28;20171;-47
2021/01/11 07:56:56;;;;;;;6.82;5.80;;;1.20;99.90;;;;;;5075578;28;20293;-44
2021/01/11 07:59:24;;;;;;;6.40;4.90;;;1.20;99.90;;;;;;5074729;28;20301;-47
2021/01/11 08:01:52;;;;;;;8.40;5.85;;;1.10;99.90;;;;;;5075378;28;20196;-47
2021/01/11 08:04:20;;;;;;;11.85;6.20;;;1.20;99.90;;;;;;5075092;28;20647;-53
2021/01/11 08:06:53;;;;;;;12.90;6.30;;;1.20;99.90;;;;;;5075008;28;20173;-49
2021/01/11 08:09:22;;;;;;;11.57;5.80;;;1.20;99.90;;;;;;5074943;28;20176;-46
2021/01/11 08:11:49;;;;;;;7.13;6.43;;;1.20;99.90;;;;;;5074453;28;20195;-49
2021/01/11 08:14:16;;;;;;;11.05;7.32;;;1.30;99.90;;;;;;5075012;28;20226;-48
2021/01/11 08:16:49;;;;;;;8.65;7.32;;;1.30;99.90;;;;;;5074709;28;20179;-44
2021/01/11 08:19:16;;;;;;;14.10;9.30;;;1.30;99.90;;;;;;5074772;28;20207;-45
2021/01/11 08:21:43;;;;;;;6.50;4.95;;;1.40;99.90;;;;;;5075070;28;20203;-47
2021/01/11 08:24:11;;;;;;;11.15;6.95;;;1.40;99.90;;;;;;5074687;28;20266;-53
2021/01/11 08:26:48;;;;;;;8.50;6.45;;;1.50;99.90;;;;;;5074828;28;20219;-48
2021/01/11 08:29:16;;;;;;;8.95;5.90;;;1.50;99.90;;;;;;5074783;28;20171;-46
2021/01/11 08:31:45;;;;;;;11.40;7.75;;;1.50;99.90;;;;;;5074846;28;20261;-47
2021/01/11 08:34:13;;;;;;;11.27;7.20;;;1.50;99.90;;;;;;5074780;28;20223;-45
2021/01/11 08:36:40;;;;;;;12.02;6.47;;;1.50;99.90;;;;;;5074264;28;20693;-46
2021/01/11 08:39:10;;;;;;;14.38;8.25;;;1.50;99.90;;;;;;5074324;28;20180;-44
2021/01/11 08:41:40;;;;;;;11.40;6.93;;;1.50;99.90;;;;;;5074090;28;20546;-44
2021/01/11 08:44:07;;;;;;;12.93;7.70;;;1.50;99.90;;;;;;5074396;28;20184;-47
2021/01/11 08:46:53;;;;;;;19.65;6.90;;;1.50;99.90;;;;;;5074422;28;20204;-47
2021/01/11 08:49:22;;;;;;;15.23;7.82;;;1.50;99.90;;;;;;5073379;28;20265;-49
2021/01/11 08:51:50;;;;;;;8.55;7.18;;;1.60;99.90;;;;;;5074134;28;20184;-48
2021/01/11 08:54:30;;;;;;;12.15;4.93;;;1.50;99.90;;;;;;5073364;28;20234;-53
2021/01/11 08:56:59;;;;;;;9.50;5.85;;;1.50;99.90;;;;;;5072577;28;20501;-45
2021/01/11 08:59:26;;;;;;;8.05;4.82;;;1.40;99.90;;;;;;5073498;28;20176;-52
2021/01/11 09:01:55;;;;;;;12.27;7.88;;;1.50;99.90;;;;;;5073186;28;20196;-47
2021/01/11 09:04:32;;;;;;;10.63;5.93;;;1.50;99.90;;;;;;5073787;28;20688;-48
2021/01/11 09:07:04;;;;;;;8.23;6.35;;;1.50;99.90;;;;;;5073964;28;20586;-45
2021/01/11 09:09:33;;;;;;;8.15;6.15;;;1.50;99.90;;;;;;5074102;28;20581;-49
2021/01/11 09:12:03;;;;;;;14.02;9.52;;;1.50;99.90;;;;;;5073342;28;20249;-49
2021/01/11 09:14:31;;;;;;;6.47;5.68;;;1.60;99.90;;;;;;5073497;28;20416;-45
2021/01/11 09:17:01;;;;;;;13.05;6.75;;;1.60;99.90;;;;;;5114226;22;20224;-56
2021/01/11 09:19:29;;;;;;;7.97;5.88;;;1.60;99.90;;;;;;5074431;28;20275;-56
2021/01/11 09:22:02;;;;;;;9.55;7.05;;;1.70;99.90;;;;;;5074057;28;20182;-59
2021/01/11 09:24:30;;;;;;;8.82;7.82;;;1.80;99.90;;;;;;5073745;28;20636;-56
2021/01/11 09:26:57;;;;;;;6.57;6.00;;;1.90;99.90;;;;;;5072141;28;20207;-55
2021/01/11 09:29:25;;;;;;;11.27;8.07;;;2.00;99.90;;;;;;5073726;28;20645;-55
2021/01/11 09:31:53;;;;;;;12.48;6.95;;;2.00;99.90;;;;;;5073487;28;20660;-58
2021/01/11 09:34:21;;;;;;;9.00;6.00;;;2.10;99.90;;;;;;5073630;28;20188;-59
2021/01/11 09:36:49;;;;;;;7.00;6.25;;;2.10;99.90;;;;;;5073109;28;20201;-58
2021/01/11 09:39:17;;;;;;;8.45;6.10;;;2.10;99.90;;;;;;5058561;28;20197;-59
2021/01/11 09:41:47;;;;;;;14.07;6.63;;;2.20;99.90;;;;;;5053637;28;20319;-57
2021/01/11 09:44:14;;;;;;;10.57;6.25;;;2.20;99.90;;;;;;5053401;28;20222;-57
2021/01/11 09:46:43;;;;;;;8.82;5.15;;;2.30;99.90;;;;;;5053271;28;20173;-55
2021/01/11 09:49:11;;;;;;;7.50;5.97;;;2.30;99.90;;;;;;5052678;28;20189;-54
2021/01/11 09:51:39;;;;;;;6.72;5.20;;;2.30;99.90;;;;;;5052958;28;20231;-56
2021/01/11 09:54:07;;;;;;;9.55;5.95;;;2.40;99.90;;;;;;5053414;28;20189;-57
2021/01/11 09:56:35;;;;;;;5.20;4.53;;;2.30;99.90;;;;;;5053371;28;20256;-53
2021/01/11 09:59:02;;;;;;;4.93;3.03;;;2.40;99.90;;;;;;5053384;28;20193;-52
2021/01/11 10:01:37;;;;;;;5.10;4.60;;;2.30;99.90;;;;;;5052977;28;20211;-54
2021/01/11 10:04:05;;;;;;;15.35;5.00;;;2.30;99.90;;;;;;5051816;28;20606;-56
2021/01/11 10:06:41;;;;;;;11.10;5.32;;;2.20;99.90;;;;;;5053165;28;20179;-55
2021/01/11 10:09:14;;;;;;;9.10;4.97;;;2.30;99.90;;;;;;5053099;28;20177;-55
2021/01/11 10:11:42;;;;;;;5.22;4.72;;;2.30;99.90;;;;;;5053011;28;20214;-58
2021/01/11 10:14:09;;;;;;;6.80;5.38;;;2.30;99.90;;;;;;5052488;28;20189;-57
2021/01/11 10:16:40;;;;;;;3.47;3.17;;;2.30;99.90;;;;;;5052886;28;20207;-56
2021/01/11 10:19:08;;;;;;;9.50;5.90;;;2.50;99.90;;;;;;5053022;28;20239;-52
2021/01/11 10:21:37;;;;;;;6.22;4.63;;;2.60;99.90;;;;;;5053326;28;20225;-55
2021/01/11 10:24:06;;;;;;;5.22;3.97;;;2.70;99.90;;;;;;5053226;28;20173;-55
2021/01/11 10:26:34;;;;;;;10.40;5.15;;;2.70;99.90;;;;;;5053122;28;20201;-55
2021/01/11 10:29:02;;;;;;;11.35;7.15;;;2.70;99.90;;;;;;5071056;28;20695;-55
2021/01/11 10:31:29;;;;;;;7.00;4.65;;;2.60;99.90;;;;;;5073541;28;20569;-56
2021/01/11 10:33:58;;;;;;;7.25;4.82;;;2.50;99.90;;;;;;5072821;28;20180;-57
2021/01/11 10:36:25;;;;;;;6.35;4.53;;;2.40;99.90;;;;;;5073223;28;20180;-53
2021/01/11 10:38:52;;;;;;;5.43;4.60;;;2.40;99.90;;;;;;5067466;28;20236;-57
2021/01/11 10:41:21;;;;;;;8.95;6.50;;;2.40;99.90;;;;;;5052856;28;20697;-53
2021/01/11 10:43:49;;;;;;;7.10;6.10;;;2.40;99.90;;;;;;5051308;28;20188;-56
2021/01/11 10:46:16;;;;;;;7.07;4.45;;;2.30;99.90;;;;;;5053381;28;20180;-57
2021/01/11 10:48:44;;;;;;;8.43;4.60;;;2.30;99.90;;;;;;5053589;28;20176;-55
2021/01/11 10:51:12;;;;;;;6.22;4.07;;;2.30;99.90;;;;;;5057932;28;20208;-53
2021/01/11 10:53:39;;;;;;;5.28;4.45;;;2.30;99.90;;;;;;5073539;28;20172;-58
2021/01/11 10:56:07;;;;;;;5.78;4.43;;;2.20;99.90;;;;;;5073893;28;20704;-48
2021/01/11 10:58:36;;;;;;;6.32;4.35;;;2.20;99.90;;;;;;5075551;28;20200;-56
2021/01/11 11:01:06;;;;;;;5.32;4.32;;;2.10;99.90;;;;;;5077089;28;20680;-56
2021/01/11 11:03:34;;;;;;;7.63;5.80;;;2.20;99.90;;;;;;5076131;28;20188;-52
2021/01/11 11:06:02;;;;;;;3.55;3.22;;;2.20;99.90;;;;;;5075117;28;20180;-52
2021/01/11 11:08:29;;;;;;;4.00;3.08;;;2.10;99.90;;;;;;5074799;28;20441;-51
2021/01/11 11:10:56;;;;;;;5.57;5.07;;;2.10;99.90;;;;;;5073096;28;20208;-56
2021/01/11 11:13:24;;;;;;;12.13;6.22;;;2.10;99.90;;;;;;5072702;28;20180;-56
2021/01/11 11:15:52;;;;;;;7.30;6.05;;;2.10;99.90;;;;;;5072799;28;20517;-50
2021/01/11 11:18:19;;;;;;;9.30;4.50;;;2.20;99.90;;;;;;5056415;28;20201;-52
2021/01/11 11:20:47;;;;;;;7.57;5.55;;;2.20;99.90;;;;;;5052712;28;20208;-51
2021/01/11 11:23:16;;;;;;;5.85;4.55;;;2.20;99.90;;;;;;5053701;28;20177;-53
2021/01/11 11:25:44;;;;;;;5.13;3.40;;;2.20;99.90;;;;;;5057353;28;20184;-51
2021/01/11 11:28:12;;;;;;;7.50;4.47;;;2.20;99.90;;;;;;5060221;28;20640;-53
2021/01/11 11:30:43;;;;;;;8.85;4.82;;;2.20;99.90;;;;;;5077466;28;20208;-51
2021/01/11 11:33:11;;;;;;;9.50;5.03;;;2.20;99.90;;;;;;5077485;28;20188;-52
2021/01/11 11:35:41;;;;;;;6.60;4.60;;;2.20;99.90;;;;;;5076508;28;20195;-55
2021/01/11 11:38:09;;;;;;;6.95;4.90;;;2.10;99.90;;;;;;5075087;28;20223;-53
2021/01/11 11:40:37;;;;;;;8.90;5.10;;;2.20;99.90;;;;;;5071518;28;20209;-55
2021/01/11 11:43:12;;;;;;;6.95;5.68;;;2.10;99.90;;;;;;5056459;28;20192;-52
2021/01/11 11:45:42;;;;;;;6.53;4.97;;;2.10;99.90;;;;;;5056623;28;20571;-54
2021/01/11 11:48:10;;;;;;;6.13;3.92;;;2.10;99.90;;;;;;5056159;28;20212;-54
2021/01/11 11:50:38;;;;;;;5.47;2.97;;;2.10;99.90;;;;;;5056237;28;20270;-50
2021/01/11 11:53:05;;;;;;;5.78;4.03;;;2.00;99.90;;;;;;5055967;28;20189;-51
2021/01/11 11:55:32;;;;;;;6.15;3.35;;;2.20;99.90;;;;;;5074165;28;20198;-55
2021/01/11 11:58:00;;;;;;;5.22;3.38;;;2.20;99.90;;;;;;5076234;28;20200;-54
2021/01/11 12:00:27;;;;;;;6.00;4.93;;;2.10;99.90;;;;;;5075735;28;20212;-55
2021/01/11 12:03:15;;;;;;;6.05;5.05;;;2.20;99.90;;;;;;5075515;28;20726;-53
2021/01/11 12:05:42;;;;;;;8.20;5.60;;;2.20;99.90;;;;;;5073996;28;20698;-54
2021/01/11 12:08:09;;;;;;;8.05;6.55;;;2.10;99.90;;;;;;5054998;28;20554;-58
2021/01/11 12:10:37;;;;;;;7.68;3.85;;;2.00;99.90;;;;;;5055284;28;20218;-58
2021/01/11 12:13:04;;;;;;;5.30;4.80;;;1.80;99.90;;;;;;5055396;28;20169;-54
2021/01/11 12:15:34;;;;;;;8.48;3.72;;;1.80;99.90;;;;;;5055026;28;20227;-53
2021/01/11 12:18:01;;;;;;;4.22;2.47;;;1.70;99.90;;;;;;5063358;28;20215;-57
2021/01/11 12:20:29;;;;;;;5.78;3.22;;;1.80;99.90;;;;;;5075041;28;20619;-55
2021/01/11 12:22:57;;;;;;;2.47;2.10;;;1.80;99.90;;;;;;5074921;28;20180;-55
2021/01/11 12:25:24;;;;;;;5.90;2.42;;;1.70;99.90;;;;;;5075564;28;20183;-56
2021/01/11 12:27:51;;;;;;;9.43;5.43;;;1.80;99.90;;;;;;5075701;28;20185;-54
2021/01/11 12:30:19;;;;;;;8.02;4.93;;;1.80;99.90;;;;;;5073975;28;20208;-54
2021/01/11 12:32:46;;;;;;;4.30;2.97;;;1.80;99.90;;;;;;5056068;28;20549;-52
2021/01/11 12:35:14;;;;;;;7.05;4.47;;;1.80;99.90;;;;;;5055068;28;20646;-51
2021/01/11 12:37:43;;;;;;;6.15;4.20;;;1.80;99.90;;;;;;5055331;28;20296;-56
2021/01/11 12:40:10;;;;;;;5.93;3.08;;;1.80;99.90;;;;;;5055441;28;20270;-57
2021/01/11 12:42:37;;;;;;;5.43;3.13;;;1.70;99.90;;;;;;5056032;28;20645;-57
2021/01/11 12:45:06;;;;;;;3.55;3.20;;;1.70;99.90;;;;;;5055813;28;20179;-53
2021/01/11 12:47:37;;;;;;;4.78;4.03;;;1.80;99.90;;;;;;5055623;28;20208;-54
2021/01/11 12:50:06;;;;;;;3.40;2.85;;;1.90;99.90;;;;;;5055234;28;20208;-58
2021/01/11 12:52:34;;;;;;;7.57;4.38;;;1.80;99.90;;;;;;5055732;28;20607;-57
2021/01/11 12:55:02;;;;;;;7.70;5.20;;;1.70;99.90;;;;;;5054835;28;20215;-55
2021/01/11 12:57:32;;;;;;;3.97;3.50;;;1.80;99.90;;;;;;5054794;28;20625;-56
2021/01/11 13:00:00;;;;;;;6.03;5.50;;;1.70;99.90;;;;;;5055051;28;20215;-52
2021/01/11 13:02:29;;;;;;;5.78;4.45;;;1.60;99.90;;;;;;5054856;28;20185;-54
2021/01/11 13:04:57;;;;;;;6.15;3.50;;;1.70;99.90;;;;;;5054955;28;20213;-49